createdAt,value
2023-04-10T00:00:16.015Z,1302.00
2023-04-10T00:01:16.085Z,1301.00
2023-04-10T00:02:16.156Z,1325.00
2023-04-10T00:03:16.351Z,1334.00
2023-04-10T00:04:16.360Z,1318.00
2023-04-10T00:05:16.234Z,1311.00
2023-04-10T00:06:16.295Z,1288.00
2023-04-10T00:07:16.319Z,1293.00
2023-04-10T00:08:16.348Z,1292.00
2023-04-10T00:09:16.377Z,1297.00
2023-04-10T00:10:16.429Z,1297.00
2023-04-10T00:11:16.473Z,1285.00
2023-04-10T00:12:16.533Z,1292.00
2023-04-10T00:13:16.536Z,1298.00
2023-04-10T00:14:16.595Z,1287.00
2023-04-10T00:15:16.605Z,1274.00
2023-04-10T00:16:16.764Z,1285.00
2023-04-10T00:17:16.721Z,1267.00
2023-04-10T00:18:16.749Z,1265.00
2023-04-10T00:19:16.799Z,1276.00
2023-04-10T00:20:16.824Z,1263.00
2023-04-10T00:21:16.863Z,1266.00
2023-04-10T00:22:16.949Z,1257.00
2023-04-10T00:23:16.954Z,1277.00
2023-04-10T00:24:16.978Z,1290.00
2023-04-10T00:25:17.020Z,1290.00
2023-04-10T00:26:17.084Z,1276.00
2023-04-10T00:27:17.118Z,1283.00
2023-04-10T00:28:17.163Z,1267.00
2023-04-10T00:29:17.197Z,1265.00
2023-04-10T00:30:17.244Z,1259.00
2023-04-10T00:31:17.311Z,1259.00
2023-04-10T00:32:17.394Z,1249.00
2023-04-10T00:33:17.355Z,1247.00
2023-04-10T00:34:17.377Z,1250.00
2023-04-10T00:35:17.458Z,1251.00
2023-04-10T00:36:17.532Z,1234.00
2023-04-10T00:37:17.543Z,1238.00
2023-04-10T00:38:17.588Z,1258.00
2023-04-10T00:39:17.681Z,1247.00
2023-04-10T00:40:17.624Z,1256.00
2023-04-10T00:41:18.042Z,1263.00
2023-04-10T00:42:17.750Z,1273.00
2023-04-10T00:43:17.760Z,1264.00
2023-04-10T00:44:17.804Z,1274.00
2023-04-10T00:45:17.842Z,1260.00
2023-04-10T00:46:17.929Z,1253.00
2023-04-10T00:47:17.984Z,1254.00
2023-04-10T00:48:17.970Z,1251.00
2023-04-10T00:49:18.007Z,1251.00
2023-04-10T00:50:18.038Z,1269.00
2023-04-10T00:51:18.066Z,1263.00
2023-04-10T00:52:18.119Z,1252.00
2023-04-10T00:53:18.156Z,1267.00
2023-04-10T00:54:18.194Z,1257.00
2023-04-10T00:55:18.235Z,1263.00
2023-04-10T00:56:18.273Z,1279.00
2023-04-10T00:57:18.308Z,1285.00
2023-04-10T00:58:18.356Z,1271.00
2023-04-10T00:59:18.391Z,1265.00
2023-04-10T01:00:18.414Z,1258.00
2023-04-10T01:01:18.494Z,1263.00
2023-04-10T01:02:18.626Z,1261.00
2023-04-10T01:03:18.637Z,1253.00
2023-04-10T01:04:18.664Z,1225.00
2023-04-10T01:05:18.585Z,1218.00
2023-04-10T01:06:18.636Z,1250.00
2023-04-10T01:07:18.679Z,1257.00
2023-04-10T01:08:18.711Z,1282.00
2023-04-10T01:09:18.729Z,1278.00
2023-04-10T01:10:18.795Z,1303.00
2023-04-10T01:11:18.822Z,1291.00
2023-04-10T01:12:18.867Z,1262.00
2023-04-10T01:13:18.851Z,1259.00
2023-04-10T01:14:18.916Z,1246.00
2023-04-10T01:15:18.938Z,1262.00
2023-04-10T01:16:18.997Z,1243.00
2023-04-10T01:17:18.998Z,1256.00
2023-04-10T01:18:19.070Z,1249.00
2023-04-10T01:19:19.065Z,1242.00
2023-04-10T01:20:19.146Z,1235.00
2023-04-10T01:21:19.141Z,1223.00
2023-04-10T01:22:19.186Z,1231.00
2023-04-10T01:23:19.239Z,1222.00
2023-04-10T01:24:19.265Z,1234.00
2023-04-10T01:25:19.288Z,1208.00
2023-04-10T01:26:19.358Z,1220.00
2023-04-10T01:27:19.380Z,1225.00
2023-04-10T01:28:19.430Z,1223.00
2023-04-10T01:29:19.442Z,1217.00
2023-04-10T01:30:19.493Z,1232.00
2023-04-10T01:31:19.647Z,1235.00
2023-04-10T01:32:19.640Z,1236.00
2023-04-10T01:33:19.621Z,1230.00
2023-04-10T01:34:19.683Z,1234.00
2023-04-10T01:35:19.708Z,1217.00
2023-04-10T01:36:19.753Z,1208.00
2023-04-10T01:37:19.769Z,1182.00
2023-04-10T01:38:19.787Z,1182.00
2023-04-10T01:39:19.835Z,1187.00
2023-04-10T01:40:19.881Z,1180.00
2023-04-10T01:41:19.917Z,1187.00
2023-04-10T01:42:19.936Z,1190.00
2023-04-10T01:43:20.013Z,1206.00
2023-04-10T01:44:20.038Z,1210.00
2023-04-10T01:45:20.090Z,1208.00
2023-04-10T01:46:20.176Z,1214.00
2023-04-10T01:47:20.178Z,1225.00
2023-04-10T01:48:20.208Z,1216.00
2023-04-10T01:49:20.248Z,1211.00
2023-04-10T01:50:20.292Z,1209.00
2023-04-10T01:51:20.327Z,1212.00
2023-04-10T01:52:20.346Z,1198.00
2023-04-10T01:53:20.420Z,1189.00
2023-04-10T01:54:20.442Z,1211.00
2023-04-10T01:55:20.479Z,1209.00
2023-04-10T01:56:20.536Z,1216.00
2023-04-10T01:57:20.573Z,1225.00
2023-04-10T01:58:20.638Z,1234.00
2023-04-10T01:59:20.650Z,1234.00
2023-04-10T02:00:20.728Z,1227.00
2023-04-10T02:01:29.030Z,1213.00
2023-04-10T02:02:21.814Z,1213.00
2023-04-10T02:03:20.905Z,1215.00
2023-04-10T02:04:20.824Z,1222.00
2023-04-10T02:05:20.727Z,1235.00
2023-04-10T02:06:20.736Z,1249.00
2023-04-10T02:07:20.703Z,1245.00
2023-04-10T02:08:20.688Z,1263.00
2023-04-10T02:09:20.696Z,1249.00
2023-04-10T02:10:20.697Z,1253.00
2023-04-10T02:11:20.703Z,1248.00
2023-04-10T02:12:20.693Z,1275.00
2023-04-10T02:13:20.685Z,1267.00
2023-04-10T02:14:20.686Z,1264.00
2023-04-10T02:15:20.676Z,1255.00
2023-04-10T02:16:20.760Z,1254.00
2023-04-10T02:17:20.837Z,1250.00
2023-04-10T02:18:20.797Z,1251.00
2023-04-10T02:19:20.846Z,1243.00
2023-04-10T02:20:20.893Z,1237.00
2023-04-10T02:21:20.944Z,1238.00
2023-04-10T02:22:20.967Z,1212.00
2023-04-10T02:23:21.050Z,1214.00
2023-04-10T02:24:21.041Z,1201.00
2023-04-10T02:25:21.096Z,1206.00
2023-04-10T02:26:21.129Z,1201.00
2023-04-10T02:27:21.167Z,1211.00
2023-04-10T02:28:21.214Z,1206.00
2023-04-10T02:29:21.237Z,1213.00
2023-04-10T02:30:21.284Z,1213.00
2023-04-10T02:31:21.358Z,1238.00
2023-04-10T02:32:21.371Z,1246.00
2023-04-10T02:33:21.399Z,1237.00
2023-04-10T02:34:21.419Z,1246.00
2023-04-10T02:35:21.521Z,1257.00
2023-04-10T02:36:21.522Z,1236.00
2023-04-10T02:37:21.566Z,1212.00
2023-04-10T02:38:21.596Z,1193.00
2023-04-10T02:39:21.652Z,1183.00
2023-04-10T02:40:21.680Z,1170.00
2023-04-10T02:41:21.732Z,1190.00
2023-04-10T02:42:21.758Z,1188.00
2023-04-10T02:43:21.774Z,1183.00
2023-04-10T02:44:21.764Z,1159.00
2023-04-10T02:45:21.826Z,1163.00
2023-04-10T02:46:21.874Z,1164.00
2023-04-10T02:47:21.868Z,1166.00
2023-04-10T02:48:21.863Z,1168.00
2023-04-10T02:49:21.908Z,1161.00
2023-04-10T02:50:21.919Z,1161.00
2023-04-10T02:51:21.942Z,1143.00
2023-04-10T02:52:21.940Z,1137.00
2023-04-10T02:53:21.932Z,1134.00
2023-04-10T02:54:21.900Z,1129.00
2023-04-10T02:55:21.919Z,1135.00
2023-04-10T02:56:21.937Z,1140.00
2023-04-10T02:57:21.912Z,1141.00
2023-04-10T02:58:21.962Z,1154.00
2023-04-10T02:59:21.925Z,1158.00
2023-04-10T03:00:21.948Z,1168.00
2023-04-10T03:01:21.950Z,1174.00
2023-04-10T03:02:22.044Z,1167.00
2023-04-10T03:03:22.133Z,1160.00
2023-04-10T03:04:22.129Z,1184.00
2023-04-10T03:05:22.030Z,1186.00
2023-04-10T03:06:22.104Z,1176.00
2023-04-10T03:07:22.117Z,1177.00
2023-04-10T03:08:22.162Z,1172.00
2023-04-10T03:09:22.199Z,1186.00
2023-04-10T03:10:22.251Z,1184.00
2023-04-10T03:11:22.307Z,1209.00
2023-04-10T03:12:22.375Z,1202.00
2023-04-10T03:13:22.432Z,1204.00
2023-04-10T03:14:22.496Z,1218.00
2023-04-10T03:15:22.563Z,1218.00
2023-04-10T03:16:22.733Z,1210.00
2023-04-10T03:17:22.713Z,1234.00
2023-04-10T03:18:22.772Z,1226.00
2023-04-10T03:19:22.817Z,1248.00
2023-04-10T03:20:22.872Z,1237.00
2023-04-10T03:21:22.966Z,1260.00
2023-04-10T03:22:23.008Z,1265.00
2023-04-10T03:23:23.050Z,1267.00
2023-04-10T03:24:23.125Z,1270.00
2023-04-10T03:25:23.201Z,1263.00
2023-04-10T03:26:23.251Z,1274.00
2023-04-10T03:27:23.313Z,1281.00
2023-04-10T03:28:23.376Z,1289.00
2023-04-10T03:29:23.415Z,1288.00
2023-04-10T03:30:23.509Z,1290.00
2023-04-10T03:31:23.549Z,1279.00
2023-04-10T03:32:23.612Z,1295.00
2023-04-10T03:33:23.643Z,1297.00
2023-04-10T03:34:23.702Z,1295.00
2023-04-10T03:35:23.762Z,1291.00
2023-04-10T03:36:23.815Z,1300.00
2023-04-10T03:37:23.845Z,1298.00
2023-04-10T03:38:23.884Z,1302.00
2023-04-10T03:39:23.955Z,1302.00
2023-04-10T03:40:24.010Z,1303.00
2023-04-10T03:41:25.432Z,1319.00
2023-04-10T03:42:24.060Z,1302.00
2023-04-10T03:43:24.101Z,1309.00
2023-04-10T03:44:24.180Z,1309.00
2023-04-10T03:45:24.190Z,1334.00
2023-04-10T03:46:24.261Z,1311.00
2023-04-10T03:47:24.334Z,1314.00
2023-04-10T03:48:24.345Z,1324.00
2023-04-10T03:49:24.340Z,1298.00
2023-04-10T03:50:24.404Z,1315.00
2023-04-10T03:51:24.504Z,1331.00
2023-04-10T03:52:24.491Z,1332.00
2023-04-10T03:53:24.592Z,1335.00
2023-04-10T03:54:24.577Z,1340.00
2023-04-10T03:55:24.629Z,1323.00
2023-04-10T03:56:24.644Z,1350.00
2023-04-10T03:57:24.701Z,1324.00
2023-04-10T03:58:24.768Z,1346.00
2023-04-10T03:59:37.287Z,1352.00
2023-04-10T04:00:25.789Z,1352.00
2023-04-10T04:01:24.748Z,1354.00
2023-04-10T04:02:24.955Z,1350.00
2023-04-10T04:03:24.939Z,1355.00
2023-04-10T04:04:24.937Z,1351.00
2023-04-10T04:05:24.741Z,1340.00
2023-04-10T04:06:24.732Z,1346.00
2023-04-10T04:07:24.755Z,1353.00
2023-04-10T04:08:24.808Z,1341.00
2023-04-10T04:09:24.712Z,1348.00
2023-04-10T04:10:24.717Z,1350.00
2023-04-10T04:11:24.709Z,1337.00
2023-04-10T04:12:24.715Z,1337.00
2023-04-10T04:13:24.748Z,1327.00
2023-04-10T04:14:24.828Z,1336.00
2023-04-10T04:15:24.873Z,1349.00
2023-04-10T04:16:24.910Z,1353.00
2023-04-10T04:17:24.987Z,1344.00
2023-04-10T04:18:24.999Z,1360.00
2023-04-10T04:19:25.036Z,1345.00
2023-04-10T04:20:25.050Z,1350.00
2023-04-10T04:21:25.089Z,1363.00
2023-04-10T04:22:25.163Z,1358.00
2023-04-10T04:23:25.186Z,1377.00
2023-04-10T04:24:25.217Z,1351.00
2023-04-10T04:25:25.261Z,1362.00
2023-04-10T04:26:25.304Z,1346.00
2023-04-10T04:27:25.327Z,1346.00
2023-04-10T04:28:25.367Z,1358.00
2023-04-10T04:29:25.423Z,1346.00
2023-04-10T04:30:25.452Z,1355.00
2023-04-10T04:31:25.519Z,1354.00
2023-04-10T04:32:25.614Z,1355.00
2023-04-10T04:33:25.574Z,1343.00
2023-04-10T04:34:25.620Z,1336.00
2023-04-10T04:35:25.660Z,1348.00
2023-04-10T04:36:25.727Z,1359.00
2023-04-10T04:37:25.789Z,1337.00
2023-04-10T04:38:25.807Z,1351.00
2023-04-10T04:39:25.854Z,1340.00
2023-04-10T04:40:25.900Z,1344.00
2023-04-10T04:41:25.946Z,1354.00
2023-04-10T04:42:25.981Z,1337.00
2023-04-10T04:43:26.055Z,1334.00
2023-04-10T04:44:26.057Z,1341.00
2023-04-10T04:45:26.131Z,1334.00
2023-04-10T04:46:26.367Z,1351.00
2023-04-10T04:47:26.299Z,1328.00
2023-04-10T04:48:26.267Z,1326.00
2023-04-10T04:49:26.315Z,1337.00
2023-04-10T04:50:26.345Z,1334.00
2023-04-10T04:51:26.375Z,1329.00
2023-04-10T04:52:26.425Z,1320.00
2023-04-10T04:53:26.495Z,1337.00
2023-04-10T04:54:26.547Z,1324.00
2023-04-10T04:55:26.586Z,1322.00
2023-04-10T04:56:26.648Z,1322.00
2023-04-10T04:57:26.693Z,1317.00
2023-04-10T04:58:26.810Z,1333.00
2023-04-10T04:59:26.822Z,1338.00
2023-04-10T05:00:33.860Z,1350.00
2023-04-10T05:01:26.857Z,1351.00
2023-04-10T05:02:26.969Z,1354.00
2023-04-10T05:03:27.043Z,1356.00
2023-04-10T05:04:27.014Z,1357.00
2023-04-10T05:05:26.840Z,1365.00
2023-04-10T05:06:26.839Z,1367.00
2023-04-10T05:07:26.801Z,1363.00
2023-04-10T05:08:26.805Z,1370.00
2023-04-10T05:09:26.780Z,1352.00
2023-04-10T05:10:26.779Z,1376.00
2023-04-10T05:11:26.809Z,1366.00
2023-04-10T05:12:26.785Z,1371.00
2023-04-10T05:13:26.783Z,1362.00
2023-04-10T05:14:26.745Z,1374.00
2023-04-10T05:15:26.767Z,1378.00
2023-04-10T05:16:26.764Z,1371.00
2023-04-10T05:17:26.754Z,1359.00
2023-04-10T05:18:26.843Z,1370.00
2023-04-10T05:19:26.716Z,1364.00
2023-04-10T05:20:26.726Z,1368.00
2023-04-10T05:21:27.663Z,1357.00
2023-04-10T05:22:26.736Z,1352.00
2023-04-10T05:23:26.709Z,1349.00
2023-04-10T05:24:26.765Z,1356.00
2023-04-10T05:25:26.851Z,1333.00
2023-04-10T05:26:26.865Z,1355.00
2023-04-10T05:27:26.945Z,1338.00
2023-04-10T05:28:26.978Z,1335.00
2023-04-10T05:29:27.025Z,1338.00
2023-04-10T05:30:27.095Z,1339.00
2023-04-10T05:31:27.205Z,1337.00
2023-04-10T05:32:27.254Z,1315.00
2023-04-10T05:33:27.220Z,1314.00
2023-04-10T05:34:27.287Z,1326.00
2023-04-10T05:35:27.396Z,1307.00
2023-04-10T05:36:27.447Z,1299.00
2023-04-10T05:37:27.514Z,1304.00
2023-04-10T05:38:27.543Z,1305.00
2023-04-10T05:39:27.628Z,1304.00
2023-04-10T05:40:27.653Z,1294.00
2023-04-10T05:41:27.672Z,1318.00
2023-04-10T05:42:27.746Z,1302.00
2023-04-10T05:43:27.814Z,1279.00
2023-04-10T05:44:27.861Z,1293.00
2023-04-10T05:45:34.926Z,1288.00
2023-04-10T05:46:27.927Z,1290.00
2023-04-10T05:47:28.306Z,1291.00
2023-04-10T05:48:27.888Z,1293.00
2023-04-10T05:49:27.886Z,1282.00
2023-04-10T05:50:29.341Z,1279.00
2023-04-10T05:51:28.133Z,1292.00
2023-04-10T05:52:28.197Z,1263.00
2023-04-10T05:53:28.213Z,1262.00
2023-04-10T05:54:28.333Z,1265.00
2023-04-10T05:55:28.335Z,1269.00
2023-04-10T05:56:28.439Z,1249.00
2023-04-10T05:57:28.472Z,1261.00
2023-04-10T05:58:28.471Z,1257.00
2023-04-10T05:59:28.578Z,1249.00
2023-04-10T06:00:28.625Z,1250.00
2023-04-10T06:01:28.691Z,1240.00
2023-04-10T06:02:28.927Z,1245.00
2023-04-10T06:03:28.880Z,1254.00
2023-04-10T06:04:29.009Z,1246.00
2023-04-10T06:05:28.908Z,1259.00
2023-04-10T06:06:28.942Z,1241.00
2023-04-10T06:07:29.025Z,1235.00
2023-04-10T06:08:29.049Z,1250.00
2023-04-10T06:09:29.106Z,1235.00
2023-04-10T06:10:29.195Z,1225.00
2023-04-10T06:11:29.234Z,1226.00
2023-04-10T06:12:29.312Z,1233.00
2023-04-10T06:13:29.304Z,1221.00
2023-04-10T06:14:29.386Z,1223.00
2023-04-10T06:15:29.414Z,1235.00
2023-04-10T06:16:29.548Z,1212.00
2023-04-10T06:17:29.584Z,1209.00
2023-04-10T06:18:29.598Z,1205.00
2023-04-10T06:19:29.625Z,1202.00
2023-04-10T06:20:29.703Z,1205.00
2023-04-10T06:21:29.754Z,1204.00
2023-04-10T06:22:29.817Z,1196.00
2023-04-10T06:23:29.870Z,1210.00
2023-04-10T06:24:29.886Z,1185.00
2023-04-10T06:25:29.952Z,1184.00
2023-04-10T06:26:29.995Z,1175.00
2023-04-10T06:27:30.059Z,1177.00
2023-04-10T06:28:30.099Z,1173.00
2023-04-10T06:29:30.408Z,1172.00
2023-04-10T06:30:30.180Z,1168.00
2023-04-10T06:31:30.232Z,1166.00
2023-04-10T06:32:30.372Z,1182.00
2023-04-10T06:33:30.278Z,1158.00
2023-04-10T06:34:30.339Z,1164.00
2023-04-10T06:35:30.455Z,1180.00
2023-04-10T06:36:30.418Z,1172.00
2023-04-10T06:37:30.463Z,1192.00
2023-04-10T06:38:30.505Z,1189.00
2023-04-10T06:39:30.578Z,1178.00
2023-04-10T06:40:30.588Z,1179.00
2023-04-10T06:41:30.644Z,1194.00
2023-04-10T06:42:30.701Z,1197.00
2023-04-10T06:43:30.899Z,1198.00
2023-04-10T06:44:30.762Z,1195.00
2023-04-10T06:45:30.754Z,1200.00
2023-04-10T06:46:30.822Z,1193.00
2023-04-10T06:47:30.846Z,1197.00
2023-04-10T06:48:30.889Z,1201.00
2023-04-10T06:49:30.897Z,1194.00
2023-04-10T06:50:33.292Z,1185.00
2023-04-10T06:51:31.027Z,1188.00
2023-04-10T06:52:31.019Z,1187.00
2023-04-10T06:53:31.095Z,1163.00
2023-04-10T06:54:31.136Z,1169.00
2023-04-10T06:55:31.149Z,1163.00
2023-04-10T06:56:31.179Z,1176.00
2023-04-10T06:57:31.219Z,1177.00
2023-04-10T06:58:31.299Z,1155.00
2023-04-10T06:59:31.254Z,1139.00
2023-04-10T07:00:31.266Z,1138.00
2023-04-10T07:01:31.273Z,1122.00
2023-04-10T07:02:31.423Z,1112.00
2023-04-10T07:03:31.336Z,1125.00
2023-04-10T07:04:31.366Z,1101.00
2023-04-10T07:05:31.339Z,1108.00
2023-04-10T07:06:31.392Z,1094.00
2023-04-10T07:07:31.396Z,1097.00
2023-04-10T07:08:31.417Z,1085.00
2023-04-10T07:09:31.417Z,1074.00
2023-04-10T07:10:31.457Z,1074.00
2023-04-10T07:11:31.779Z,1057.00
2023-04-10T07:12:31.492Z,1079.00
2023-04-10T07:13:31.543Z,1075.00
2023-04-10T07:14:31.553Z,1064.00
2023-04-10T07:15:31.544Z,1081.00
2023-04-10T07:16:31.646Z,1078.00
2023-04-10T07:17:31.652Z,1061.00
2023-04-10T07:18:31.609Z,1041.00
2023-04-10T07:19:31.651Z,1050.00
2023-04-10T07:20:31.621Z,1028.00
2023-04-10T07:21:31.659Z,1033.00
2023-04-10T07:22:31.711Z,1035.00
2023-04-10T07:23:31.699Z,1036.00
2023-04-10T07:24:31.672Z,1009.00
2023-04-10T07:25:31.658Z,1002.00
2023-04-10T07:26:31.719Z,1007.00
2023-04-10T07:27:31.709Z,993.00
2023-04-10T07:28:31.707Z,995.00
2023-04-10T07:29:31.745Z,982.00
2023-04-10T07:30:31.720Z,985.00
2023-04-10T07:31:31.845Z,972.00
2023-04-10T07:32:31.814Z,969.00
2023-04-10T07:33:31.773Z,953.00
2023-04-10T07:34:31.735Z,951.00
2023-04-10T07:35:31.811Z,937.00
2023-04-10T07:36:31.721Z,933.00
2023-04-10T07:37:31.730Z,918.00
2023-04-10T07:38:31.714Z,917.00
2023-04-10T07:39:31.715Z,913.00
2023-04-10T07:40:31.705Z,904.00
2023-04-10T07:41:31.720Z,883.00
2023-04-10T07:42:31.695Z,869.00
2023-04-10T07:43:31.670Z,854.00
2023-04-10T07:44:31.679Z,848.00
2023-04-10T07:45:31.684Z,849.00
2023-04-10T07:46:31.652Z,841.00
2023-04-10T07:47:31.674Z,852.00
2023-04-10T07:48:31.660Z,844.00
2023-04-10T07:49:31.674Z,822.00
2023-04-10T07:50:31.680Z,817.00
2023-04-10T07:51:31.694Z,817.00
2023-04-10T07:52:31.669Z,813.00
2023-04-10T07:53:31.671Z,798.00
2023-04-10T07:54:31.710Z,786.00
2023-04-10T07:55:31.712Z,795.00
2023-04-10T07:56:31.732Z,791.00
2023-04-10T07:57:31.755Z,790.00
2023-04-10T07:58:31.840Z,795.00
2023-04-10T07:59:31.890Z,776.00
2023-04-10T08:00:31.905Z,768.00
2023-04-10T08:01:31.953Z,769.00
2023-04-10T08:02:32.181Z,769.00
2023-04-10T08:03:32.174Z,765.00
2023-04-10T08:04:32.308Z,758.00
2023-04-10T08:05:32.220Z,750.00
2023-04-10T08:06:32.219Z,726.00
2023-04-10T08:07:32.284Z,716.00
2023-04-10T08:08:32.336Z,727.00
2023-04-10T08:09:32.418Z,702.00
2023-04-10T08:10:32.476Z,688.00
2023-04-10T08:11:32.538Z,663.00
2023-04-10T08:12:32.580Z,669.00
2023-04-10T08:13:32.657Z,664.00
2023-04-10T08:14:32.692Z,658.00
2023-04-10T08:15:32.780Z,649.00
2023-04-10T08:16:32.839Z,650.00
2023-04-10T08:17:32.907Z,647.00
2023-04-10T08:18:32.990Z,639.00
2023-04-10T08:19:33.002Z,645.00
2023-04-10T08:20:33.059Z,650.00
2023-04-10T08:21:33.136Z,641.00
2023-04-10T08:22:33.154Z,645.00
2023-04-10T08:23:33.241Z,661.00
2023-04-10T08:24:33.310Z,660.00
2023-04-10T08:25:33.357Z,649.00
2023-04-10T08:26:33.460Z,653.00
2023-04-10T08:27:33.501Z,649.00
2023-04-10T08:28:33.522Z,647.00
2023-04-10T08:29:33.577Z,646.00
2023-04-10T08:30:33.668Z,643.00
2023-04-10T08:31:33.789Z,643.00
2023-04-10T08:32:33.813Z,639.00
2023-04-10T08:33:33.861Z,644.00
2023-04-10T08:34:33.926Z,645.00
2023-04-10T08:35:34.028Z,651.00
2023-04-10T08:36:34.021Z,651.00
2023-04-10T08:37:34.082Z,648.00
2023-04-10T08:38:34.127Z,645.00
2023-04-10T08:39:34.213Z,637.00
2023-04-10T08:40:34.285Z,630.00
2023-04-10T08:41:34.320Z,638.00
2023-04-10T08:42:35.684Z,639.00
2023-04-10T08:43:34.556Z,641.00
2023-04-10T08:44:34.524Z,640.00
2023-04-10T08:45:34.621Z,659.00
2023-04-10T08:46:34.745Z,643.00
2023-04-10T08:47:34.732Z,623.00
2023-04-10T08:48:34.735Z,603.00
2023-04-10T08:49:34.834Z,590.00
2023-04-10T08:50:34.899Z,576.00
2023-04-10T08:51:34.990Z,554.00
2023-04-10T08:52:35.016Z,542.00
2023-04-10T08:53:35.093Z,557.00
2023-04-10T08:54:35.118Z,562.00
2023-04-10T08:55:35.192Z,552.00
2023-04-10T08:56:35.305Z,552.00
2023-04-10T08:57:35.359Z,554.00
2023-04-10T08:58:35.424Z,562.00
2023-04-10T08:59:35.476Z,572.00
2023-04-10T09:00:35.476Z,572.00
2023-04-10T09:01:35.678Z,577.00
2023-04-10T09:02:35.845Z,576.00
2023-04-10T09:03:35.862Z,566.00
2023-04-10T09:04:35.774Z,560.00
2023-04-10T09:05:35.817Z,549.00
2023-04-10T09:06:35.914Z,533.00
2023-04-10T09:07:35.920Z,539.00
2023-04-10T09:08:36.001Z,539.00
2023-04-10T09:09:36.033Z,538.00
2023-04-10T09:10:36.106Z,536.00
2023-04-10T09:11:36.264Z,535.00
2023-04-10T09:12:36.230Z,510.00
2023-04-10T09:13:36.777Z,524.00
2023-04-10T09:14:36.342Z,527.00
2023-04-10T09:15:36.422Z,538.00
2023-04-10T09:16:36.467Z,535.00
2023-04-10T09:17:36.545Z,526.00
2023-04-10T09:18:36.575Z,515.00
2023-04-10T09:19:36.695Z,523.00
2023-04-10T09:20:36.690Z,526.00
2023-04-10T09:21:36.784Z,519.00
2023-04-10T09:22:36.848Z,516.00
2023-04-10T09:23:36.879Z,510.00
2023-04-10T09:24:36.981Z,519.00
2023-04-10T09:25:36.990Z,529.00
2023-04-10T09:26:37.076Z,531.00
2023-04-10T09:27:37.166Z,516.00
2023-04-10T09:28:37.218Z,531.00
2023-04-10T09:29:37.284Z,535.00
2023-04-10T09:30:37.324Z,525.00
2023-04-10T09:31:37.426Z,529.00
2023-04-10T09:32:37.475Z,520.00
2023-04-10T09:33:37.503Z,518.00
2023-04-10T09:34:37.535Z,519.00
2023-04-10T09:35:37.581Z,531.00
2023-04-10T09:36:37.740Z,540.00
2023-04-10T09:37:37.699Z,549.00
2023-04-10T09:38:37.780Z,547.00
2023-04-10T09:39:37.850Z,546.00
2023-04-10T09:40:37.902Z,540.00
2023-04-10T09:41:37.958Z,528.00
2023-04-10T09:42:38.021Z,538.00
2023-04-10T09:43:38.052Z,548.00
2023-04-10T09:44:38.127Z,547.00
2023-04-10T09:45:38.197Z,549.00
2023-04-10T09:46:38.252Z,549.00
2023-04-10T09:47:38.319Z,549.00
2023-04-10T09:48:38.347Z,552.00
2023-04-10T09:49:38.427Z,558.00
2023-04-10T09:50:39.919Z,548.00
2023-04-10T09:51:38.564Z,545.00
2023-04-10T09:52:38.587Z,555.00
2023-04-10T09:53:38.634Z,566.00
2023-04-10T09:54:38.685Z,554.00
2023-04-10T09:55:38.824Z,557.00
2023-04-10T09:56:38.818Z,550.00
2023-04-10T09:57:38.851Z,556.00
2023-04-10T09:58:38.925Z,550.00
2023-04-10T09:59:40.210Z,548.00
2023-04-10T10:00:39.069Z,544.00
2023-04-10T10:01:39.177Z,545.00
2023-04-10T10:02:39.369Z,555.00
2023-04-10T10:03:39.332Z,552.00
2023-04-10T10:04:39.353Z,554.00
2023-04-10T10:05:39.383Z,563.00
2023-04-10T10:06:39.433Z,568.00
2023-04-10T10:07:39.502Z,566.00
2023-04-10T10:08:39.585Z,568.00
2023-04-10T10:09:39.641Z,571.00
2023-04-10T10:10:39.684Z,577.00
2023-04-10T10:11:39.732Z,578.00
2023-04-10T10:12:39.819Z,584.00
2023-04-10T10:13:39.877Z,596.00
2023-04-10T10:14:39.946Z,594.00
2023-04-10T10:15:40.061Z,605.00
2023-04-10T10:16:40.186Z,604.00
2023-04-10T10:17:40.154Z,599.00
2023-04-10T10:18:40.177Z,599.00
2023-04-10T10:19:40.222Z,595.00
2023-04-10T10:20:40.302Z,594.00
2023-04-10T10:21:40.357Z,595.00
2023-04-10T10:22:40.405Z,584.00
2023-04-10T10:23:40.462Z,575.00
2023-04-10T10:24:40.550Z,583.00
2023-04-10T10:25:40.624Z,577.00
2023-04-10T10:26:40.662Z,576.00
2023-04-10T10:27:40.737Z,573.00
2023-04-10T10:28:40.796Z,575.00
2023-04-10T10:29:40.824Z,575.00
2023-04-10T10:30:40.917Z,570.00
2023-04-10T10:31:40.983Z,561.00
2023-04-10T10:32:41.031Z,564.00
2023-04-10T10:33:41.092Z,574.00
2023-04-10T10:34:41.149Z,568.00
2023-04-10T10:35:41.225Z,569.00
2023-04-10T10:36:41.468Z,571.00
2023-04-10T10:37:41.339Z,565.00
2023-04-10T10:38:41.445Z,560.00
2023-04-10T10:39:41.444Z,570.00
2023-04-10T10:40:41.529Z,569.00
2023-04-10T10:41:41.589Z,566.00
2023-04-10T10:42:41.648Z,570.00
2023-04-10T10:43:41.703Z,571.00
2023-04-10T10:44:41.862Z,575.00
2023-04-10T10:45:41.870Z,568.00
2023-04-10T10:46:41.859Z,570.00
2023-04-10T10:47:42.039Z,565.00
2023-04-10T10:48:42.038Z,557.00
2023-04-10T10:49:42.061Z,555.00
2023-04-10T10:50:42.125Z,556.00
2023-04-10T10:51:42.189Z,548.00
2023-04-10T10:52:42.235Z,555.00
2023-04-10T10:53:42.361Z,548.00
2023-04-10T10:54:50.176Z,543.00
2023-04-10T10:55:43.344Z,543.00
2023-04-10T10:56:42.351Z,543.00
2023-04-10T10:57:42.407Z,544.00
2023-04-10T10:58:42.346Z,541.00
2023-04-10T10:59:42.341Z,529.00
2023-04-10T11:00:42.380Z,519.00
2023-04-10T11:01:42.411Z,511.00
2023-04-10T11:02:42.443Z,510.00
2023-04-10T11:03:42.345Z,513.00
2023-04-10T11:04:42.356Z,518.00
2023-04-10T11:05:42.380Z,503.00
2023-04-10T11:06:43.623Z,504.00
2023-04-10T11:07:42.472Z,502.00
2023-04-10T11:08:42.583Z,507.00
2023-04-10T11:09:42.570Z,500.00
2023-04-10T11:10:42.622Z,500.00
2023-04-10T11:11:42.679Z,502.00
2023-04-10T11:12:42.725Z,507.00
2023-04-10T11:13:42.811Z,501.00
2023-04-10T11:14:42.854Z,505.00
2023-04-10T11:15:43.862Z,510.00
2023-04-10T11:16:42.954Z,500.00
2023-04-10T11:17:43.008Z,500.00
2023-04-10T11:18:43.052Z,502.00
2023-04-10T11:19:43.073Z,498.00
2023-04-10T11:20:43.108Z,505.00
2023-04-10T11:21:43.178Z,509.00
2023-04-10T11:22:43.206Z,514.00
2023-04-10T11:23:43.250Z,512.00
2023-04-10T11:24:43.348Z,501.00
2023-04-10T11:25:43.350Z,504.00
2023-04-10T11:26:43.466Z,512.00
2023-04-10T11:27:43.479Z,503.00
2023-04-10T11:28:43.512Z,502.00
2023-04-10T11:29:43.591Z,508.00
2023-04-10T11:30:43.634Z,500.00
2023-04-10T11:31:43.679Z,505.00
2023-04-10T11:32:43.772Z,509.00
2023-04-10T11:33:43.800Z,506.00
2023-04-10T11:34:43.809Z,514.00
2023-04-10T11:35:43.924Z,519.00
2023-04-10T11:36:43.953Z,527.00
2023-04-10T11:37:43.981Z,520.00
2023-04-10T11:38:44.026Z,544.00
2023-04-10T11:39:44.099Z,572.00
2023-04-10T11:40:44.131Z,588.00
2023-04-10T11:41:44.168Z,579.00
2023-04-10T11:42:44.234Z,565.00
2023-04-10T11:43:44.274Z,552.00
2023-04-10T11:44:44.342Z,537.00
2023-04-10T11:45:44.415Z,546.00
2023-04-10T11:46:44.441Z,558.00
2023-04-10T11:47:44.512Z,555.00
2023-04-10T11:48:44.572Z,537.00
2023-04-10T11:49:44.617Z,532.00
2023-04-10T11:50:44.674Z,520.00
2023-04-10T11:51:44.680Z,505.00
2023-04-10T11:52:44.763Z,500.00
2023-04-10T11:53:44.813Z,502.00
2023-04-10T11:54:44.857Z,505.00
2023-04-10T11:55:44.899Z,504.00
2023-04-10T11:56:44.976Z,509.00
2023-04-10T11:57:45.031Z,515.00
2023-04-10T11:58:45.074Z,509.00
2023-04-10T11:59:45.123Z,511.00
2023-04-10T12:00:45.173Z,512.00
2023-04-10T12:01:45.240Z,532.00
2023-04-10T12:02:45.437Z,528.00
2023-04-10T12:03:45.406Z,546.00
2023-04-10T12:04:45.668Z,544.00
2023-04-10T12:05:45.441Z,524.00
2023-04-10T12:06:45.512Z,509.00
2023-04-10T12:07:45.526Z,509.00
2023-04-10T12:08:45.578Z,517.00
2023-04-10T12:09:45.624Z,502.00
2023-04-10T12:10:45.710Z,508.00
2023-04-10T12:11:45.744Z,500.00
2023-04-10T12:12:45.814Z,500.00
2023-04-10T12:13:45.857Z,517.00
2023-04-10T12:14:45.904Z,502.00